MASCOMA R @ MASCOMA: From 11/05/2018 11:00 to 11/19/2018 21:00

Date STAGE [FT] FLOW [CFS] LAKE ELEVATION [FT] PRECIPITATION INCREMENT [IN] AIR TEMPERATURE [F]
11/19/2018 14:00 3.89 578.6 748.51 0.00 34.1
11/19/2018 13:00 3.89 578.6 748.52 0.00 32.6
11/19/2018 12:00 3.90 583.0 748.52 0.00 31.7
11/19/2018 11:00 3.90 583.0 748.53 0.00 30.8
11/19/2018 10:00 3.91 587.5 748.54 0.00 30.3
11/19/2018 09:00 3.92 591.9 748.55 0.00 30.0
11/19/2018 08:00 3.92 591.9 748.56 0.00 29.8
11/19/2018 07:00 3.94 600.9 748.57 0.00 29.4
11/19/2018 06:00 3.94 600.9 748.58 0.00 29.7
11/19/2018 05:00 3.95 605.4 748.59 0.00 29.7
11/19/2018 04:00 3.96 609.9 748.60 0.00 29.4
11/19/2018 03:00 3.96 609.9 748.60 0.00 29.2
11/19/2018 02:00 3.97 614.4 748.61 0.00 28.9
11/19/2018 01:00 3.98 618.9 748.62 0.00 29.0
11/19/2018 00:00 3.98 618.9 748.63 0.00 29.4
11/18/2018 23:00 3.99 623.5 748.64 0.00 29.5
11/18/2018 22:00 4.00 628.0 748.64 0.00 29.5
11/18/2018 21:00 4.00 628.0 748.65 0.00 29.0
11/18/2018 20:00 4.01 632.6 748.66 0.00 28.7
11/18/2018 19:00 4.01 632.6 748.67 0.00 28.7
11/18/2018 18:00 4.02 637.1 748.68 0.00 29.7
11/18/2018 17:00 4.02 637.1 748.69 0.00 32.2
11/18/2018 16:00 4.03 641.7 748.70 0.00 32.3
11/18/2018 15:00 4.04 646.3 748.71 0.00 31.6
11/18/2018 14:00 4.05 650.9 748.71 0.00 33.6
11/18/2018 13:00 4.05 650.9 748.72 0.00 30.4
11/18/2018 12:00 4.06 655.5 748.73 0.00 31.9
11/18/2018 11:00 4.07 660.1 748.74 0.00 31.8
11/18/2018 10:00 4.08 664.7 748.75 0.00 33.5
11/18/2018 09:00 4.08 664.7 748.76 0.00 25.4
11/18/2018 08:00 4.08 664.7 748.77 0.00 24.4
11/18/2018 07:00 4.09 669.4 748.78 0.00 25.5
11/18/2018 06:00 4.10 674.0 748.79 0.00 27.4
11/18/2018 05:00 4.10 674.0 748.80 0.00 28.4
11/18/2018 04:00 4.12 683.3 748.81 0.00 29.6
11/18/2018 03:00 4.12 683.3 748.82 0.00 31.4
11/18/2018 02:00 4.13 688.0 748.83 0.00 32.4
11/18/2018 01:00 4.13 688.0 748.84 0.00 33.2
11/18/2018 00:00 4.14 692.7 748.85 0.00 33.6
11/17/2018 23:00 4.15 697.4 748.86 0.00 35.3
11/17/2018 22:00 4.16 702.1 748.87 0.00 35.6
11/17/2018 21:00 4.16 702.1 748.88 0.00 36.3
11/17/2018 20:00 4.16 702.1 748.89 0.00 37.0
11/17/2018 19:00 4.17 706.8 748.90 0.00 37.2
11/17/2018 18:00 4.19 716.3 748.91 0.00 38.1
11/17/2018 17:00 4.19 716.3 748.93 0.00 39.0
11/17/2018 16:00 4.19 716.3 748.94 0.01 40.2
11/17/2018 15:00 4.20 721.0 748.95 0.00 41.2
11/17/2018 14:00 4.22 730.4 748.97 0.00 41.3
11/17/2018 13:00 4.22 730.4 748.98 0.00 40.2
11/17/2018 12:00 4.24 739.7 748.99 0.00 39.2
11/17/2018 11:00 4.24 739.7 749.00 0.05 40.9
11/17/2018 10:00 4.25 744.4 749.01 0.03 36.0
11/17/2018 09:00 4.26 749.1 749.02 0.00 33.5
11/17/2018 08:00 4.28 758.6 749.04 0.00 33.5
11/17/2018 07:00 4.28 758.6 749.05 0.01 32.9
11/17/2018 06:00 4.30 768.0 749.06 0.01 32.6
11/17/2018 05:00 4.31 772.7 749.08 0.00 32.5
11/17/2018 04:00 4.34 786.7 749.09 0.02 33.0
11/17/2018 03:00 4.36 796.1 749.11 0.01 33.3
11/17/2018 02:00 4.36 796.1 749.12 0.00 32.7
11/17/2018 01:00 4.38 805.6 749.13 0.00 32.3
11/17/2018 00:00 4.39 810.3 749.15 0.00 32.2
11/16/2018 23:00 4.40 815.0 749.16 0.00 31.4
11/16/2018 22:00 4.43 829.6 749.18 0.00 31.0
11/16/2018 21:00 4.46 844.3 749.19 0.00 30.6
11/16/2018 20:00 4.47 849.2 749.21 0.00 29.6
11/16/2018 19:00 4.50 864.0 749.23 0.00 29.8
11/16/2018 18:00 4.53 878.3 749.25 0.00 30.0
11/16/2018 17:00 4.57 897.5 749.27 0.00 30.2
11/16/2018 16:00 4.60 912.0 749.28 0.00 30.1
11/16/2018 15:00 4.61 917.0 749.30 0.00 29.9
11/16/2018 14:00 4.64 931.9 749.32 0.00 28.7
11/16/2018 13:00 4.70 962.0 749.35 0.00 27.9
11/16/2018 12:00 4.73 976.4 749.37 0.00 26.5
11/16/2018 11:00 4.78 1000.4 749.39 0.00 25.6
11/16/2018 10:00 4.76 990.8 749.40 0.00 26.2
11/16/2018 09:00 4.29 763.3 749.42 0.00 28.3
11/16/2018 08:00 4.30 768.0 749.43 0.00 27.9
11/16/2018 07:00 4.30 768.0 749.43 0.00 27.3
11/16/2018 06:00 4.32 777.4 749.44 0.00 26.1
11/16/2018 05:00 4.34 786.7 749.45 0.00 25.4
11/16/2018 04:00 4.39 810.3 749.46 0.00 25.5
11/16/2018 03:00 4.39 810.3 749.46 0.00 24.3
11/16/2018 02:00 4.40 815.0 749.46 0.00 23.6
11/16/2018 01:00 4.37 800.8 749.47 0.00 22.9
11/16/2018 00:00 4.39 810.3 749.47 0.00 22.8
11/15/2018 23:00 4.40 815.0 749.48 0.00 25.0
11/15/2018 22:00 4.40 815.0 749.48 0.00 25.4
11/15/2018 21:00 4.42 824.7 749.49 0.00 25.7
11/15/2018 20:00 4.45 839.4 749.50 0.00 25.7
11/15/2018 19:00 4.47 849.2 749.51 0.00 25.7
11/15/2018 18:00 4.48 854.1 749.52 0.00 26.2
11/15/2018 17:00 4.49 859.1 749.53 0.00 27.2
11/15/2018 16:00 4.52 873.6 749.54 0.00 26.5
11/15/2018 15:00 4.55 887.9 749.55 0.00 25.1
11/15/2018 14:00 4.55 887.9 749.56 0.00 23.3
11/15/2018 13:00 4.58 902.4 749.57 0.00 23.4
11/15/2018 12:00 4.61 917.0 749.59 0.00 20.0
11/15/2018 11:00 4.64 931.9 749.59 0.00 20.0
11/15/2018 10:00 4.66 941.9 749.60 0.00 16.8
11/15/2018 09:00 4.65 936.9 749.61 0.00 15.4
11/15/2018 08:00 4.68 952.0 749.61 0.00 14.2
11/15/2018 07:00 4.69 957.0 749.62 0.00 14.0
11/15/2018 06:00 4.70 962.0 749.63 0.00 13.6
11/15/2018 05:00 4.70 962.0 749.63 0.00 13.8
11/15/2018 04:00 4.70 962.0 749.63 0.00 14.2
11/15/2018 03:00 4.72 971.6 749.64 0.00 14.5
11/15/2018 02:00 4.71 966.8 749.64 0.00 14.2
11/15/2018 01:00 4.70 962.0 749.64 0.00 14.9
11/15/2018 00:00 4.70 962.0 749.64 0.00 15.3
11/14/2018 23:00 4.71 966.8 749.64 0.00 15.8
11/14/2018 22:00 4.72 971.6 749.64 0.00 16.1
11/14/2018 21:00 4.69 957.0 749.63 0.00 16.7
11/14/2018 20:00 4.69 957.0 749.62 0.00 17.3
11/14/2018 19:00 4.67 946.9 749.61 0.00 18.4
11/14/2018 18:00 4.68 952.0 749.60 0.00 19.6
11/14/2018 17:00 4.65 936.9 749.59 0.00 22.3
11/14/2018 16:00 4.65 936.9 749.58 0.00 25.7
11/14/2018 15:00 4.64 931.9 749.57 0.00 28.5
11/14/2018 14:00 4.51 868.8 749.55 0.00 27.8
11/14/2018 13:00 4.50 864.0 749.55 0.00 30.3
11/14/2018 12:00 4.53 878.3 749.53 0.00 25.7
11/14/2018 11:00 4.54 883.1 749.52 0.00 24.8
11/14/2018 10:00 4.51 868.8 749.52 0.00 25.6
11/14/2018 09:00 4.49 859.1 749.51 0.00 20.8
11/14/2018 08:00 4.45 839.4 749.49 0.00 20.5
11/14/2018 07:00 4.42 824.7 749.48 0.00 21.2
11/14/2018 06:00 4.38 805.6 749.47 0.00 21.4
11/14/2018 05:00 4.37 800.8 749.45 0.00 22.1
11/14/2018 04:00 4.34 786.7 749.44 0.00 23.4
11/14/2018 03:00 4.29 763.3 749.42 0.00 24.8
11/14/2018 02:00 4.25 744.4 749.41 0.00 25.9
11/14/2018 01:00 4.25 744.4 749.39 0.00 27.1
11/14/2018 00:00 4.21 725.7 749.38 0.00 29.6
11/13/2018 23:00 4.20 721.0 749.38 0.00 32.6
11/13/2018 22:00 4.16 702.1 749.37 0.01 34.1
11/13/2018 21:00 4.17 706.8 749.37 0.01 35.0
11/13/2018 20:00 4.16 702.1 749.36 0.01 35.2
11/13/2018 19:00 4.16 702.1 749.36 0.02 35.0
11/13/2018 18:00 4.12 683.3 749.35 0.02 35.0
11/13/2018 17:00 4.13 688.0 749.35 0.02 34.7
11/13/2018 16:00 4.12 683.3 749.34 0.04 34.8
11/13/2018 15:00 4.13 688.0 749.34 0.06 35.0
11/13/2018 14:00 4.12 683.3 749.33 0.11 34.3
11/13/2018 13:00 4.09 669.4 749.32 0.13 34.6
11/13/2018 12:00 4.08 664.7 749.31 0.13 34.1
11/13/2018 11:00 4.05 650.9 749.31 0.16 33.6
11/13/2018 10:00 4.08 664.7 749.30 0.19 33.7
11/13/2018 09:00 4.07 660.1 749.30 0.03 33.3
11/13/2018 08:00 4.07 660.1 749.30 0.00 33.4
11/13/2018 07:00 4.09 669.4 749.30 0.00 33.0
11/13/2018 06:00 4.09 669.4 749.30 0.00 32.6
11/13/2018 05:00 4.08 664.7 749.30 0.00 33.0
11/13/2018 04:00 4.07 660.1 749.30 0.00 33.5
11/13/2018 03:00 4.11 678.7 749.31 0.00 35.0
11/13/2018 02:00 4.11 678.7 749.31 0.00 35.2
11/13/2018 01:00 4.13 688.0 749.32 0.00 34.5
11/13/2018 00:00 4.12 683.3 749.32 0.00 34.2
11/12/2018 23:00 4.13 688.0 749.33 0.00 33.7
11/12/2018 22:00 4.14 692.7 749.34 0.00 33.7
11/12/2018 21:00 4.16 702.1 749.34 0.00 33.1
11/12/2018 20:00 4.17 706.8 749.35 0.00 32.5
11/12/2018 19:00 4.19 716.3 749.36 0.00 33.0
11/12/2018 18:00 4.19 716.3 749.36 0.00 34.2
11/12/2018 17:00 4.20 721.0 749.37 0.00 39.3
11/12/2018 16:00 4.22 730.4 749.38 0.00 43.9
11/12/2018 15:00 4.23 735.0 749.39 0.00 43.7
11/12/2018 14:00 4.23 735.0 749.39 0.00 45.5
11/12/2018 13:00 4.25 744.4 749.40 0.00 42.3
11/12/2018 12:00 4.25 744.4 749.40 0.00 43.1
11/12/2018 11:00 4.27 753.8 749.41 0.00 41.8
11/12/2018 10:00 4.29 763.3 749.42 0.00 38.1
11/12/2018 09:00 4.30 768.0 749.43 0.00 38.9
11/12/2018 08:00 4.31 772.7 749.43 0.00 27.6
11/12/2018 07:00 4.33 782.0 749.44 0.00 25.4
11/12/2018 06:00 4.34 786.7 749.44 0.00 24.2
11/12/2018 05:00 4.35 791.4 749.45 0.00 23.4
11/12/2018 04:00 4.36 796.1 749.46 0.00 23.7
11/12/2018 03:00 4.37 800.8 749.46 0.00 24.2
11/12/2018 02:00 4.38 805.6 749.47 0.00 24.7
11/12/2018 01:00 4.38 805.6 749.47 0.00 25.3
11/12/2018 00:00 4.39 810.3 749.48 0.00 26.0
11/11/2018 23:00 4.41 819.9 749.48 0.00 26.5
11/11/2018 22:00 4.42 824.7 749.48 0.00 27.3
11/11/2018 21:00 4.41 819.9 749.49 0.00 28.6
11/11/2018 20:00 4.43 829.6 749.49 0.00 30.3
11/11/2018 19:00 4.43 829.6 749.49 0.00 30.6
11/11/2018 18:00 4.43 829.6 749.49 0.00 32.9
11/11/2018 17:00 4.42 824.7 749.49 0.00 34.6
11/11/2018 16:00 4.42 824.7 749.49 0.00 37.2
11/11/2018 15:00 4.45 839.4 749.50 0.00 38.8
11/11/2018 14:00 4.45 839.4 749.50 0.00 39.9
11/11/2018 13:00 4.42 824.7 749.50 0.00 37.9
11/11/2018 12:00 4.46 844.3 749.50 0.00 37.8
11/11/2018 11:00 4.44 834.5 749.50 0.00 34.9
11/11/2018 10:00 4.45 839.4 749.50 0.00 33.0
11/11/2018 09:00 4.45 839.4 749.50 0.00 33.4
11/11/2018 08:00 4.43 829.6 749.50 0.00 29.9
11/11/2018 07:00 4.42 824.7 749.49 0.00 27.3
11/11/2018 06:00 4.43 829.6 749.49 0.00 27.3
11/11/2018 05:00 4.43 829.6 749.48 0.00 28.3
11/11/2018 04:00 4.38 805.6 749.48 0.00 29.1
11/11/2018 03:00 4.37 800.8 749.47 0.00 30.6
11/11/2018 02:00 4.38 805.6 749.48 0.00 31.1
11/11/2018 01:00 4.39 810.3 749.47 0.00 32.3
11/11/2018 00:00 4.38 805.6 749.47 0.00 32.6
11/10/2018 23:00 4.37 800.8 749.47 0.00 33.6
11/10/2018 22:00 4.37 800.8 749.47 0.00 33.4
11/10/2018 21:00 4.38 805.6 749.46 0.00 33.5
11/10/2018 20:00 4.38 805.6 749.46 0.00 33.2
11/10/2018 19:00 4.34 786.7 749.46 0.00 34.0
11/10/2018 18:00 4.32 777.4 749.45 0.00 33.6
11/10/2018 17:00 4.28 758.6 749.44 0.00 35.1
11/10/2018 16:00 4.27 753.8 749.44 0.00 37.2
11/10/2018 15:00 4.30 768.0 749.44 0.00 41.3
11/10/2018 14:00 4.28 758.6 749.43 0.00 38.9
11/10/2018 13:00 4.28 758.6 749.43 0.00 39.1
11/10/2018 12:00 4.25 744.4 749.43 0.00 41.5
11/10/2018 11:00 4.27 753.8 749.43 0.04 38.9
11/10/2018 10:00 4.27 753.8 749.43 0.01 38.9
11/10/2018 09:00 4.27 753.8 749.43 0.02 37.7
11/10/2018 08:00 4.26 749.1 749.43 0.02 37.3
11/10/2018 07:00 4.27 753.8 749.43 0.01 37.5
11/10/2018 06:00 4.30 768.0 749.44 0.00 37.4
11/10/2018 05:00 4.30 768.0 749.44 0.01 37.5
11/10/2018 04:00 4.29 763.3 749.45 0.01 38.1
11/10/2018 03:00 4.32 777.4 749.46 0.01 37.9
11/10/2018 02:00 4.32 777.4 749.46 0.04 37.0
11/10/2018 01:00 4.34 786.7 749.46 0.01 37.6
11/10/2018 00:00 4.34 786.7 749.47 0.03 36.0
11/09/2018 23:00 4.34 786.7 749.47 0.02 36.2
11/09/2018 22:00 4.36 796.1 749.48 0.07 34.6
11/09/2018 21:00 4.36 796.1 749.48 0.06 34.2
11/09/2018 20:00 4.38 805.6 749.47 0.06 36.1
11/09/2018 19:00 4.38 805.6 749.48 0.04 36.9
11/09/2018 18:00 4.37 800.8 749.48 0.00 38.5
11/09/2018 17:00 4.41 819.9 749.49 0.00 41.7
11/09/2018 16:00 4.41 819.9 749.50 0.00 41.6
11/09/2018 15:00 4.44 834.5 749.51 0.00 42.0
11/09/2018 14:00 4.45 839.4 749.52 0.00 41.4
11/09/2018 13:00 4.48 854.1 749.53 0.00 41.1
11/09/2018 12:00 4.50 864.0 749.54 0.00 40.3
11/09/2018 11:00 4.51 868.8 749.56 0.00 39.3
11/09/2018 10:00 4.55 887.9 749.57 0.00 40.9
11/09/2018 09:00 4.58 902.4 749.59 0.00 36.0
11/09/2018 08:00 4.60 912.0 749.60 0.00 30.2
11/09/2018 07:00 4.61 917.0 749.61 0.00 28.0
11/09/2018 06:00 4.64 931.9 749.63 0.00 29.3
11/09/2018 05:00 4.68 952.0 749.64 0.00 30.1
11/09/2018 04:00 4.70 962.0 749.65 0.00 30.9
11/09/2018 03:00 4.73 976.4 749.67 0.00 31.1
11/09/2018 02:00 4.76 990.8 749.68 0.00 32.5
11/09/2018 01:00 4.78 1000.4 749.69 0.00 34.4
11/09/2018 00:00 4.81 1015.0 749.71 0.00 36.6
11/08/2018 23:00 4.83 1024.9 749.73 0.00 39.5
11/08/2018 22:00 4.86 1039.9 749.74 0.00 41.1
11/08/2018 21:00 4.89 1055.0 749.76 0.00 41.8
11/08/2018 20:00 4.91 1065.0 749.78 0.00 42.0
11/08/2018 19:00 4.96 1089.9 749.80 0.00 42.7
11/08/2018 18:00 4.99 1105.0 749.81 0.00 43.5
11/08/2018 17:00 5.02 1120.0 749.83 0.00 44.6
11/08/2018 16:00 5.05 1134.9 749.85 0.00 45.9
11/08/2018 15:00 5.09 1155.0 749.86 0.00 46.7
11/08/2018 14:00 5.12 1171.9 749.88 0.00 46.8
11/08/2018 13:00 5.16 1195.9 749.89 0.00 47.5
11/08/2018 12:00 5.19 1214.0 749.91 0.00 47.6
11/08/2018 11:00 5.24 1240.0 749.93 0.00 45.9
11/08/2018 10:00 5.28 1260.0 749.95 0.00 49.2
11/08/2018 09:00 5.33 1285.0 749.96 0.00 50.4
11/08/2018 08:00 4.91 1065.0 749.97 0.00 41.7
11/08/2018 07:00 4.91 1065.0 749.97 0.00 42.0
11/08/2018 06:00 4.92 1070.0 749.97 0.00 41.1
11/08/2018 05:00 4.94 1079.9 749.98 0.00 39.4
11/08/2018 04:00 4.94 1079.9 749.98 0.00 39.4
11/08/2018 03:00 4.92 1070.0 749.97 0.00 42.3
11/08/2018 02:00 4.94 1079.9 749.97 0.00 42.1
11/08/2018 01:00 4.89 1055.0 749.96 0.00 43.8
11/08/2018 00:00 4.89 1055.0 749.97 0.00 45.8
11/07/2018 23:00 4.91 1065.0 749.97 0.00 43.8
11/07/2018 22:00 4.92 1070.0 749.97 0.00 39.9
11/07/2018 21:00 4.88 1050.0 749.96 0.00 38.1
11/07/2018 20:00 4.87 1044.9 749.96 0.00 40.3
11/07/2018 19:00 4.87 1044.9 749.95 0.00 43.0
11/07/2018 18:00 4.88 1050.0 749.95 0.00 48.2
11/07/2018 17:00 4.86 1039.9 749.94 0.00 51.2
11/07/2018 16:00 4.83 1024.9 749.94 0.00 54.6
11/07/2018 15:00 4.85 1034.9 749.93 0.00 54.1
11/07/2018 14:00 4.79 1005.2 749.92 0.00 53.0
11/07/2018 13:00 4.80 1010.0 749.92 0.00 53.5
11/07/2018 12:00 4.79 1005.2 749.91 0.00 53.9
11/07/2018 11:00 4.77 995.6 749.90 0.00 58.4
11/07/2018 10:00 4.76 990.8 749.90 0.00 58.5
11/07/2018 09:00 4.74 981.1 749.90 0.00 56.4
11/07/2018 08:00 4.76 990.8 749.89 0.00 52.6
11/07/2018 07:00 4.72 971.6 749.89 0.00 47.0
11/07/2018 06:00 4.70 962.0 749.89 0.00 46.0
11/07/2018 05:00 4.70 962.0 749.88 0.00 47.4
11/07/2018 04:00 4.69 957.0 749.88 0.00 46.9
11/07/2018 03:00 4.65 936.9 749.88 0.00 47.6
11/07/2018 02:00 4.63 926.9 749.88 0.01 46.6
11/07/2018 01:00 4.67 946.9 749.88 0.01 48.3
11/07/2018 00:00 4.67 946.9 749.88 0.00 47.7
11/06/2018 23:00 4.69 957.0 749.88 0.00 46.2
11/06/2018 22:00 4.67 946.9 749.89 0.00 46.3
11/06/2018 21:00 4.66 941.9 749.89 0.00 46.2
11/06/2018 20:00 4.66 941.9 749.89 0.01 46.1
11/06/2018 19:00 4.69 957.0 749.89 0.00 46.9
11/06/2018 18:00 4.68 952.0 749.89 0.04 47.3
11/06/2018 17:00 4.64 931.9 749.89 0.02 47.1
11/06/2018 16:00 4.68 952.0 749.89 0.09 46.8
11/06/2018 15:00 4.68 952.0 749.88 0.30 46.7
11/06/2018 14:00 4.65 936.9 749.88 0.03 46.9
11/06/2018 13:00 4.68 952.0 749.89 0.00 46.5
11/06/2018 12:00 4.70 962.0 749.90 0.00 47.3
11/06/2018 11:00 4.76 990.8 749.91 0.00 46.5
11/06/2018 10:00 4.79 1005.2 749.92 0.00 45.9
11/06/2018 09:00 4.80 1010.0 749.93 0.00 45.5
11/06/2018 08:00 4.83 1024.9 749.94 0.00 44.0
11/06/2018 07:00 4.86 1039.9 749.96 0.00 43.0
11/06/2018 06:00 4.87 1044.9 749.98 0.01 42.5
11/06/2018 05:00 4.88 1050.0 749.99 0.00 41.9
11/06/2018 04:00 4.95 1084.9 750.01 0.00 41.2
11/06/2018 03:00 4.99 1105.0 750.02 0.01 40.8
11/06/2018 02:00 4.99 1105.0 750.03 0.00 40.2
11/06/2018 01:00 5.02 1120.0 750.04 0.04 39.9
11/06/2018 00:00 5.05 1134.9 750.06 0.02 39.6
11/05/2018 23:00 5.06 1139.9 750.07 0.02 39.8
11/05/2018 22:00 5.09 1155.0 750.08 0.00 40.3
11/05/2018 21:00 5.14 1183.9 750.10 0.00 39.8
11/05/2018 20:00 5.20 1220.0 750.12 0.00 39.6
11/05/2018 19:00 5.22 1230.0 750.14 0.00 39.7
11/05/2018 18:00 5.26 1250.0 750.16 0.00 39.0
11/05/2018 17:00 5.35 1295.0 750.17 0.00 39.2
11/05/2018 16:00 5.35 1295.0 750.19 0.00 39.0
11/05/2018 15:00 -- -- -- -- --
11/05/2018 14:00 -- -- -- -- --
11/05/2018 13:00 -- -- -- -- --
11/05/2018 12:00 -- -- -- -- --
11/05/2018 11:00 -- -- -- -- --